PAWO2: Black Bear Creek, Pawnee, OK

                                SHEF ID:       PAWO2     Black Bear Creek at Pawnee, OK
STATION TYPE:
Regulating: Stage = 17.00, Flow = 9631

PRECIP STAGE RIV-FLOW BAT-LOAD
in ft cfs volt
Ccp-Rev Ccp-Rev Ccp-Rev Ccp-Rev
(America/Chicago)
04/28 00:00 ---- 4.89 817 12.37
04/28 01:00 ---- 4.86 804 12.36
04/28 02:00 ---- 4.84 795 12.34
04/28 03:00 ---- 4.81 782 12.33
04/28 04:00 ---- 4.79 773 12.30
04/28 05:00 ---- 4.77 765 12.27
04/28 06:00 ---- 4.75 756 12.25
04/28 07:00 ---- 4.72 744 12.22
04/28 08:00 ---- 4.69 731 12.27
04/28 09:00 ---- 4.66 718 12.61
04/28 10:00 ---- 4.66 718 12.96
04/28 11:00 ---- 4.64 710 13.28
04/28 12:00 ---- 4.61 698 13.32
04/28 13:00 ---- 4.60 694 13.92
04/28 14:00 ---- 4.57 681 14.01
04/28 15:00 ---- 4.55 673 13.95
04/28 16:00 ---- 4.52 661 14.01
04/28 17:00 ---- 4.50 653 13.99
04/28 18:00 ---- 4.48 645 13.34
04/28 19:00 ---- 4.47 641 13.39
04/28 20:00 ---- 4.45 634 13.19
04/28 21:00 ---- 4.43 626 12.60
04/28 22:00 ---- 4.41 618 12.34
04/28 23:00 ---- 4.39 610 12.37
Data processed at Wed 29Apr2026 04:36 GMT

NOTICE: If you are parsing this page

Please convert to using our Data API. Starting early 2026 we will be migrating to: https://water.usace.army.mil with modern pages rendered in JavaScript. When this migration completes you will no longer be able to scrape this page! CWMSDataAPI (CDA)

Timeseries IDs (TSIDs)

TSIDs used from left to right in the data table
PAWN.Precip-Inc.Total.1Hour.1Hour.Ccp-Rev
PAWN.Stage.Inst.1Hour.0.Ccp-Rev
PAWN.Flow.Inst.1Hour.0.Ccp-Rev
PAWN.Volt-Battery Load.Inst.1Hour.0.Ccp-Rev

                            

All information presented herein is the property of the government of the United States of America and may be revised or deleted at any time without prior notice. Dissemination of this information without the expressed written consent of the Public Affairs Office, Tulsa District U.S. Army Corps of Engineers is strictly prohibited. These data are gathered electronically and, as presented, have NOT undergone any form of quality control. These data are NOT guaranteed to be valid or correct.